sensor_id;sensor_type;location;lat;lon;timestamp;P1;durP1;ratioP1;P2;durP2;ratioP2
32108;SDS011;18624;50.042;8.436;2022-08-19T00:01:28;14.35;;;13.05;;
32108;SDS011;18624;50.042;8.436;2022-08-19T00:03:57;14.20;;;12.75;;
32108;SDS011;18624;50.042;8.436;2022-08-19T00:06:25;14.90;;;13.43;;
32108;SDS011;18624;50.042;8.436;2022-08-19T00:08:53;14.30;;;12.93;;
32108;SDS011;18624;50.042;8.436;2022-08-19T00:11:19;16.17;;;14.48;;
32108;SDS011;18624;50.042;8.436;2022-08-19T00:13:51;12.95;;;11.75;;
32108;SDS011;18624;50.042;8.436;2022-08-19T00:16:18;13.85;;;12.55;;
32108;SDS011;18624;50.042;8.436;2022-08-19T00:18:52;16.00;;;14.25;;
32108;SDS011;18624;50.042;8.436;2022-08-19T00:21:19;14.65;;;13.15;;
32108;SDS011;18624;50.042;8.436;2022-08-19T00:23:46;14.15;;;12.75;;
32108;SDS011;18624;50.042;8.436;2022-08-19T00:26:13;15.35;;;13.95;;
32108;SDS011;18624;50.042;8.436;2022-08-19T00:28:40;13.95;;;12.48;;
32108;SDS011;18624;50.042;8.436;2022-08-19T00:31:07;13.77;;;12.48;;
32108;SDS011;18624;50.042;8.436;2022-08-19T00:33:34;15.25;;;13.82;;
32108;SDS011;18624;50.042;8.436;2022-08-19T00:36:02;14.63;;;13.32;;
32108;SDS011;18624;50.042;8.436;2022-08-19T00:38:33;14.35;;;13.05;;
32108;SDS011;18624;50.042;8.436;2022-08-19T00:41:04;14.15;;;12.82;;
32108;SDS011;18624;50.042;8.436;2022-08-19T00:43:32;13.15;;;11.95;;
32108;SDS011;18624;50.042;8.436;2022-08-19T00:45:58;13.55;;;12.35;;
32108;SDS011;18624;50.042;8.436;2022-08-19T00:48:25;13.70;;;12.43;;
32108;SDS011;18624;50.042;8.436;2022-08-19T00:50:52;12.98;;;11.77;;
32108;SDS011;18624;50.042;8.436;2022-08-19T00:53:22;14.35;;;12.55;;
32108;SDS011;18624;50.042;8.436;2022-08-19T00:55:53;12.65;;;11.45;;
32108;SDS011;18624;50.042;8.436;2022-08-19T00:58:24;14.13;;;12.82;;
32108;SDS011;18624;50.042;8.436;2022-08-19T01:00:53;16.95;;;15.15;;
32108;SDS011;18624;50.042;8.436;2022-08-19T01:03:20;13.63;;;12.32;;
32108;SDS011;18624;50.042;8.436;2022-08-19T01:05:48;15.73;;;14.20;;
32108;SDS011;18624;50.042;8.436;2022-08-19T01:08:17;14.98;;;13.48;;
32108;SDS011;18624;50.042;8.436;2022-08-19T01:10:46;14.70;;;13.30;;
32108;SDS011;18624;50.042;8.436;2022-08-19T01:13:15;16.25;;;14.60;;
32108;SDS011;18624;50.042;8.436;2022-08-19T01:15:46;13.68;;;12.38;;
32108;SDS011;18624;50.042;8.436;2022-08-19T01:18:16;13.98;;;12.40;;
32108;SDS011;18624;50.042;8.436;2022-08-19T01:20:45;14.57;;;13.27;;
32108;SDS011;18624;50.042;8.436;2022-08-19T01:23:12;13.48;;;12.15;;
32108;SDS011;18624;50.042;8.436;2022-08-19T01:25:44;15.07;;;13.13;;
32108;SDS011;18624;50.042;8.436;2022-08-19T01:28:20;13.68;;;12.27;;
32108;SDS011;18624;50.042;8.436;2022-08-19T01:30:59;13.57;;;12.18;;
32108;SDS011;18624;50.042;8.436;2022-08-19T01:33:33;15.30;;;13.80;;
32108;SDS011;18624;50.042;8.436;2022-08-19T01:36:43;14.25;;;12.85;;
32108;SDS011;18624;50.042;8.436;2022-08-19T01:39:15;13.85;;;12.45;;
32108;SDS011;18624;50.042;8.436;2022-08-19T01:41:43;12.90;;;11.70;;
32108;SDS011;18624;50.042;8.436;2022-08-19T01:44:10;12.15;;;10.85;;
32108;SDS011;18624;50.042;8.436;2022-08-19T01:46:44;13.85;;;12.50;;
32108;SDS011;18624;50.042;8.436;2022-08-19T01:49:11;12.88;;;11.50;;
32108;SDS011;18624;50.042;8.436;2022-08-19T01:51:38;13.60;;;12.40;;
32108;SDS011;18624;50.042;8.436;2022-08-19T01:54:09;13.57;;;12.27;;
32108;SDS011;18624;50.042;8.436;2022-08-19T01:56:48;13.52;;;12.15;;
32108;SDS011;18624;50.042;8.436;2022-08-19T01:59:18;12.60;;;11.50;;
32108;SDS011;18624;50.042;8.436;2022-08-19T02:01:47;12.20;;;11.07;;
32108;SDS011;18624;50.042;8.436;2022-08-19T02:04:13;12.55;;;11.35;;
32108;SDS011;18624;50.042;8.436;2022-08-19T02:06:40;11.40;;;10.30;;
32108;SDS011;18624;50.042;8.436;2022-08-19T02:09:07;10.48;;;9.48;;
32108;SDS011;18624;50.042;8.436;2022-08-19T02:11:35;12.77;;;11.10;;
32108;SDS011;18624;50.042;8.436;2022-08-19T02:14:04;11.63;;;10.50;;
32108;SDS011;18624;50.042;8.436;2022-08-19T02:16:32;13.80;;;12.07;;
32108;SDS011;18624;50.042;8.436;2022-08-19T02:18:59;15.05;;;13.63;;
32108;SDS011;18624;50.042;8.436;2022-08-19T02:21:28;13.65;;;12.30;;
32108;SDS011;18624;50.042;8.436;2022-08-19T02:23:55;13.82;;;12.52;;
32108;SDS011;18624;50.042;8.436;2022-08-19T02:26:22;13.75;;;12.35;;
32108;SDS011;18624;50.042;8.436;2022-08-19T02:28:49;14.20;;;12.90;;
32108;SDS011;18624;50.042;8.436;2022-08-19T02:31:17;13.70;;;12.30;;
32108;SDS011;18624;50.042;8.436;2022-08-19T02:33:46;14.02;;;12.57;;
32108;SDS011;18624;50.042;8.436;2022-08-19T02:36:14;13.25;;;11.95;;
32108;SDS011;18624;50.042;8.436;2022-08-19T02:38:46;14.18;;;12.77;;
32108;SDS011;18624;50.042;8.436;2022-08-19T02:41:24;15.85;;;14.35;;
32108;SDS011;18624;50.042;8.436;2022-08-19T02:43:56;13.50;;;12.02;;
32108;SDS011;18624;50.042;8.436;2022-08-19T02:46:45;14.98;;;13.43;;
32108;SDS011;18624;50.042;8.436;2022-08-19T02:49:13;15.43;;;13.85;;
32108;SDS011;18624;50.042;8.436;2022-08-19T02:51:43;15.43;;;13.68;;
32108;SDS011;18624;50.042;8.436;2022-08-19T02:54:11;13.43;;;12.07;;
32108;SDS011;18624;50.042;8.436;2022-08-19T02:56:39;13.73;;;12.43;;
32108;SDS011;18624;50.042;8.436;2022-08-19T02:59:07;15.55;;;13.73;;
32108;SDS011;18624;50.042;8.436;2022-08-19T03:01:39;14.30;;;12.90;;
32108;SDS011;18624;50.042;8.436;2022-08-19T03:04:08;11.93;;;10.82;;
32108;SDS011;18624;50.042;8.436;2022-08-19T03:06:38;12.68;;;11.40;;
32108;SDS011;18624;50.042;8.436;2022-08-19T03:09:06;13.45;;;12.02;;
32108;SDS011;18624;50.042;8.436;2022-08-19T03:11:33;13.15;;;11.70;;
32108;SDS011;18624;50.042;8.436;2022-08-19T03:14:01;12.43;;;11.15;;
32108;SDS011;18624;50.042;8.436;2022-08-19T03:16:30;13.00;;;11.50;;
32108;SDS011;18624;50.042;8.436;2022-08-19T03:18:59;12.90;;;11.80;;
32108;SDS011;18624;50.042;8.436;2022-08-19T03:21:31;13.40;;;12.00;;
32108;SDS011;18624;50.042;8.436;2022-08-19T03:24:01;12.73;;;11.43;;
32108;SDS011;18624;50.042;8.436;2022-08-19T03:26:30;12.65;;;11.35;;
32108;SDS011;18624;50.042;8.436;2022-08-19T03:28:57;12.52;;;11.23;;
32108;SDS011;18624;50.042;8.436;2022-08-19T03:31:25;13.00;;;11.75;;
32108;SDS011;18624;50.042;8.436;2022-08-19T03:34:11;12.65;;;11.40;;
32108;SDS011;18624;50.042;8.436;2022-08-19T03:36:40;13.02;;;11.73;;
32108;SDS011;18624;50.042;8.436;2022-08-19T03:39:06;13.10;;;10.70;;
32108;SDS011;18624;50.042;8.436;2022-08-19T03:41:38;12.18;;;10.80;;
32108;SDS011;18624;50.042;8.436;2022-08-19T03:44:15;14.18;;;12.25;;
32108;SDS011;18624;50.042;8.436;2022-08-19T03:46:54;14.52;;;13.07;;
32108;SDS011;18624;50.042;8.436;2022-08-19T03:49:24;12.38;;;11.13;;
32108;SDS011;18624;50.042;8.436;2022-08-19T03:51:54;13.13;;;11.30;;
32108;SDS011;18624;50.042;8.436;2022-08-19T03:54:23;10.18;;;8.60;;
32108;SDS011;18624;50.042;8.436;2022-08-19T03:56:52;12.38;;;11.07;;
32108;SDS011;18624;50.042;8.436;2022-08-19T03:59:22;11.98;;;10.80;;
32108;SDS011;18624;50.042;8.436;2022-08-19T04:01:55;13.15;;;10.48;;
32108;SDS011;18624;50.042;8.436;2022-08-19T04:04:24;11.88;;;10.65;;
32108;SDS011;18624;50.042;8.436;2022-08-19T04:06:54;12.98;;;11.68;;
32108;SDS011;18624;50.042;8.436;2022-08-19T04:09:21;9.93;;;8.93;;
32108;SDS011;18624;50.042;8.436;2022-08-19T04:11:50;10.98;;;9.98;;
32108;SDS011;18624;50.042;8.436;2022-08-19T04:14:21;11.13;;;9.77;;
32108;SDS011;18624;50.042;8.436;2022-08-19T04:16:50;11.45;;;10.20;;
32108;SDS011;18624;50.042;8.436;2022-08-19T04:19:18;14.00;;;12.70;;
32108;SDS011;18624;50.042;8.436;2022-08-19T04:21:46;14.38;;;12.88;;
32108;SDS011;18624;50.042;8.436;2022-08-19T04:24:14;16.33;;;14.25;;
32108;SDS011;18624;50.042;8.436;2022-08-19T04:26:41;16.38;;;14.82;;
32108;SDS011;18624;50.042;8.436;2022-08-19T04:29:09;16.23;;;14.55;;
32108;SDS011;18624;50.042;8.436;2022-08-19T04:31:38;18.40;;;15.80;;
32108;SDS011;18624;50.042;8.436;2022-08-19T04:34:07;16.17;;;14.52;;
32108;SDS011;18624;50.042;8.436;2022-08-19T04:36:37;14.57;;;13.15;;
32108;SDS011;18624;50.042;8.436;2022-08-19T04:39:07;15.38;;;13.75;;
32108;SDS011;18624;50.042;8.436;2022-08-19T04:41:36;15.07;;;13.57;;
32108;SDS011;18624;50.042;8.436;2022-08-19T04:44:21;16.83;;;14.65;;
32108;SDS011;18624;50.042;8.436;2022-08-19T04:46:48;15.93;;;14.43;;
32108;SDS011;18624;50.042;8.436;2022-08-19T04:49:20;15.82;;;14.38;;
32108;SDS011;18624;50.042;8.436;2022-08-19T04:51:52;14.95;;;13.60;;
32108;SDS011;18624;50.042;8.436;2022-08-19T04:54:21;13.85;;;12.55;;
32108;SDS011;18624;50.042;8.436;2022-08-19T04:57:05;14.95;;;13.30;;
32108;SDS011;18624;50.042;8.436;2022-08-19T04:59:34;15.45;;;13.95;;
32108;SDS011;18624;50.042;8.436;2022-08-19T05:02:03;15.90;;;14.43;;
32108;SDS011;18624;50.042;8.436;2022-08-19T05:04:30;16.48;;;14.88;;
32108;SDS011;18624;50.042;8.436;2022-08-19T05:06:59;12.82;;;11.45;;
32108;SDS011;18624;50.042;8.436;2022-08-19T05:09:28;15.90;;;13.90;;
32108;SDS011;18624;50.042;8.436;2022-08-19T05:12:14;14.45;;;13.13;;
32108;SDS011;18624;50.042;8.436;2022-08-19T05:14:41;14.20;;;12.95;;
32108;SDS011;18624;50.042;8.436;2022-08-19T05:17:08;13.18;;;11.95;;
32108;SDS011;18624;50.042;8.436;2022-08-19T05:19:53;15.73;;;14.27;;
32108;SDS011;18624;50.042;8.436;2022-08-19T05:22:39;14.25;;;12.80;;
32108;SDS011;18624;50.042;8.436;2022-08-19T05:25:10;13.20;;;12.10;;
32108;SDS011;18624;50.042;8.436;2022-08-19T05:27:40;14.70;;;13.20;;
32108;SDS011;18624;50.042;8.436;2022-08-19T05:30:08;13.27;;;12.00;;
32108;SDS011;18624;50.042;8.436;2022-08-19T05:32:36;13.00;;;11.90;;
32108;SDS011;18624;50.042;8.436;2022-08-19T05:35:03;11.20;;;10.20;;
32108;SDS011;18624;50.042;8.436;2022-08-19T05:37:30;12.60;;;11.50;;
32108;SDS011;18624;50.042;8.436;2022-08-19T05:39:56;14.48;;;12.98;;
32108;SDS011;18624;50.042;8.436;2022-08-19T05:42:23;13.50;;;12.20;;
32108;SDS011;18624;50.042;8.436;2022-08-19T05:44:50;14.27;;;12.88;;
32108;SDS011;18624;50.042;8.436;2022-08-19T05:47:18;14.10;;;12.80;;
32108;SDS011;18624;50.042;8.436;2022-08-19T05:49:46;12.68;;;11.48;;
32108;SDS011;18624;50.042;8.436;2022-08-19T05:52:16;11.68;;;9.95;;
32108;SDS011;18624;50.042;8.436;2022-08-19T05:54:44;11.77;;;10.57;;
32108;SDS011;18624;50.042;8.436;2022-08-19T05:57:17;11.80;;;10.73;;
32108;SDS011;18624;50.042;8.436;2022-08-19T05:59:45;10.32;;;9.18;;
32108;SDS011;18624;50.042;8.436;2022-08-19T06:02:24;9.15;;;8.25;;
32108;SDS011;18624;50.042;8.436;2022-08-19T06:04:51;10.27;;;9.43;;
32108;SDS011;18624;50.042;8.436;2022-08-19T06:07:19;11.20;;;9.00;;
32108;SDS011;18624;50.042;8.436;2022-08-19T06:09:46;10.10;;;9.10;;
32108;SDS011;18624;50.042;8.436;2022-08-19T06:12:29;10.10;;;9.10;;
32108;SDS011;18624;50.042;8.436;2022-08-19T06:15:02;9.57;;;8.77;;
32108;SDS011;18624;50.042;8.436;2022-08-19T06:17:34;10.75;;;9.65;;
32108;SDS011;18624;50.042;8.436;2022-08-19T06:20:05;11.25;;;10.25;;
32108;SDS011;18624;50.042;8.436;2022-08-19T06:22:38;10.88;;;9.77;;
32108;SDS011;18624;50.042;8.436;2022-08-19T06:25:09;11.38;;;10.38;;
32108;SDS011;18624;50.042;8.436;2022-08-19T06:27:37;10.38;;;9.23;;
32108;SDS011;18624;50.042;8.436;2022-08-19T06:30:23;9.07;;;8.35;;
32108;SDS011;18624;50.042;8.436;2022-08-19T06:32:50;10.10;;;9.10;;
32108;SDS011;18624;50.042;8.436;2022-08-19T06:35:18;8.73;;;7.93;;
32108;SDS011;18624;50.042;8.436;2022-08-19T06:37:44;10.05;;;8.82;;
32108;SDS011;18624;50.042;8.436;2022-08-19T06:40:11;8.15;;;7.35;;
32108;SDS011;18624;50.042;8.436;2022-08-19T06:42:38;9.63;;;8.10;;
32108;SDS011;18624;50.042;8.436;2022-08-19T06:45:18;10.95;;;8.30;;
32108;SDS011;18624;50.042;8.436;2022-08-19T06:47:50;7.95;;;7.25;;
32108;SDS011;18624;50.042;8.436;2022-08-19T06:50:20;8.95;;;7.38;;
32108;SDS011;18624;50.042;8.436;2022-08-19T06:52:50;8.52;;;7.80;;
32108;SDS011;18624;50.042;8.436;2022-08-19T06:55:18;7.40;;;6.63;;
32108;SDS011;18624;50.042;8.436;2022-08-19T06:57:45;8.52;;;7.80;;
32108;SDS011;18624;50.042;8.436;2022-08-19T07:00:12;8.52;;;7.82;;
32108;SDS011;18624;50.042;8.436;2022-08-19T07:02:42;9.25;;;7.75;;
32108;SDS011;18624;50.042;8.436;2022-08-19T07:05:18;8.50;;;7.38;;
32108;SDS011;18624;50.042;8.436;2022-08-19T07:07:45;9.88;;;7.95;;
32108;SDS011;18624;50.042;8.436;2022-08-19T07:10:13;8.48;;;7.68;;
32108;SDS011;18624;50.042;8.436;2022-08-19T07:12:39;11.23;;;10.07;;
32108;SDS011;18624;50.042;8.436;2022-08-19T07:15:07;14.52;;;11.80;;
32108;SDS011;18624;50.042;8.436;2022-08-19T07:17:37;19.27;;;16.08;;
32108;SDS011;18624;50.042;8.436;2022-08-19T07:20:07;14.45;;;13.05;;
32108;SDS011;18624;50.042;8.436;2022-08-19T07:22:36;9.90;;;9.00;;
32108;SDS011;18624;50.042;8.436;2022-08-19T07:25:04;12.93;;;11.38;;
32108;SDS011;18624;50.042;8.436;2022-08-19T07:27:32;12.68;;;11.15;;
32108;SDS011;18624;50.042;8.436;2022-08-19T07:30:00;14.38;;;12.57;;
32108;SDS011;18624;50.042;8.436;2022-08-19T07:32:27;13.93;;;12.45;;
32108;SDS011;18624;50.042;8.436;2022-08-19T07:34:53;20.70;;;17.02;;
32108;SDS011;18624;50.042;8.436;2022-08-19T07:37:22;11.25;;;10.07;;
32108;SDS011;18624;50.042;8.436;2022-08-19T07:39:58;10.98;;;9.63;;
32108;SDS011;18624;50.042;8.436;2022-08-19T07:42:25;8.32;;;7.63;;
32108;SDS011;18624;50.042;8.436;2022-08-19T07:44:52;9.73;;;8.70;;
32108;SDS011;18624;50.042;8.436;2022-08-19T07:47:19;12.13;;;9.02;;
32108;SDS011;18624;50.042;8.436;2022-08-19T07:50:07;12.18;;;9.80;;
32108;SDS011;18624;50.042;8.436;2022-08-19T07:52:37;11.10;;;10.10;;
32108;SDS011;18624;50.042;8.436;2022-08-19T07:55:06;15.98;;;11.55;;
32108;SDS011;18624;50.042;8.436;2022-08-19T07:57:54;10.05;;;9.07;;
32108;SDS011;18624;50.042;8.436;2022-08-19T08:00:21;10.45;;;8.43;;
32108;SDS011;18624;50.042;8.436;2022-08-19T08:02:50;10.38;;;9.30;;
32108;SDS011;18624;50.042;8.436;2022-08-19T08:05:20;8.23;;;7.43;;
32108;SDS011;18624;50.042;8.436;2022-08-19T08:08:09;9.48;;;8.52;;
32108;SDS011;18624;50.042;8.436;2022-08-19T08:11:13;12.23;;;9.63;;
32108;SDS011;18624;50.042;8.436;2022-08-19T08:13:40;11.15;;;8.82;;
32108;SDS011;18624;50.042;8.436;2022-08-19T08:16:08;10.25;;;9.23;;
32108;SDS011;18624;50.042;8.436;2022-08-19T08:18:39;13.60;;;12.13;;
32108;SDS011;18624;50.042;8.436;2022-08-19T08:21:15;10.10;;;9.07;;
32108;SDS011;18624;50.042;8.436;2022-08-19T08:23:42;9.27;;;8.35;;
32108;SDS011;18624;50.042;8.436;2022-08-19T08:26:09;14.57;;;13.10;;
32108;SDS011;18624;50.042;8.436;2022-08-19T08:28:38;16.73;;;12.10;;
32108;SDS011;18624;50.042;8.436;2022-08-19T08:31:06;12.32;;;11.13;;
32108;SDS011;18624;50.042;8.436;2022-08-19T08:33:35;14.25;;;11.13;;
32108;SDS011;18624;50.042;8.436;2022-08-19T08:36:04;13.20;;;10.43;;
32108;SDS011;18624;50.042;8.436;2022-08-19T08:38:31;11.27;;;10.18;;
32108;SDS011;18624;50.042;8.436;2022-08-19T08:43:49;9.43;;;8.65;;
32108;SDS011;18624;50.042;8.436;2022-08-19T08:46:25;13.13;;;11.77;;
32108;SDS011;18624;50.042;8.436;2022-08-19T08:51:43;10.85;;;9.27;;
32108;SDS011;18624;50.042;8.436;2022-08-19T08:54:24;10.27;;;8.98;;
32108;SDS011;18624;50.042;8.436;2022-08-19T08:57:04;9.45;;;8.52;;
32108;SDS011;18624;50.042;8.436;2022-08-19T08:59:39;10.30;;;9.40;;
32108;SDS011;18624;50.042;8.436;2022-08-19T09:02:07;12.20;;;10.95;;
32108;SDS011;18624;50.042;8.436;2022-08-19T09:04:35;13.20;;;11.82;;
32108;SDS011;18624;50.042;8.436;2022-08-19T09:07:21;12.88;;;11.68;;
32108;SDS011;18624;50.042;8.436;2022-08-19T09:13:05;14.77;;;13.38;;
32108;SDS011;18624;50.042;8.436;2022-08-19T09:15:54;13.80;;;12.60;;
32108;SDS011;18624;50.042;8.436;2022-08-19T09:18:49;13.45;;;11.88;;
32108;SDS011;18624;50.042;8.436;2022-08-19T09:21:19;13.25;;;12.02;;
32108;SDS011;18624;50.042;8.436;2022-08-19T09:23:58;14.77;;;13.45;;
32108;SDS011;18624;50.042;8.436;2022-08-19T09:26:25;16.45;;;14.85;;
32108;SDS011;18624;50.042;8.436;2022-08-19T09:29:21;13.73;;;12.33;;
32108;SDS011;18624;50.042;8.436;2022-08-19T09:31:54;13.90;;;12.68;;
32108;SDS011;18624;50.042;8.436;2022-08-19T09:34:20;13.35;;;12.15;;
32108;SDS011;18624;50.042;8.436;2022-08-19T09:36:48;14.52;;;12.48;;
32108;SDS011;18624;50.042;8.436;2022-08-19T09:39:20;15.50;;;14.07;;
32108;SDS011;18624;50.042;8.436;2022-08-19T09:41:46;12.82;;;11.73;;
32108;SDS011;18624;50.042;8.436;2022-08-19T09:44:15;14.25;;;12.82;;
32108;SDS011;18624;50.042;8.436;2022-08-19T09:46:44;15.52;;;13.90;;
32108;SDS011;18624;50.042;8.436;2022-08-19T09:49:13;15.18;;;13.77;;
32108;SDS011;18624;50.042;8.436;2022-08-19T09:51:40;14.95;;;13.48;;
32108;SDS011;18624;50.042;8.436;2022-08-19T09:54:06;13.20;;;11.95;;
32108;SDS011;18624;50.042;8.436;2022-08-19T09:56:36;13.35;;;12.07;;
32108;SDS011;18624;50.042;8.436;2022-08-19T09:59:03;11.70;;;10.70;;
32108;SDS011;18624;50.042;8.436;2022-08-19T10:01:30;14.93;;;13.50;;
32108;SDS011;18624;50.042;8.436;2022-08-19T10:03:59;17.50;;;15.80;;
32108;SDS011;18624;50.042;8.436;2022-08-19T10:06:32;16.88;;;15.45;;
32108;SDS011;18624;50.042;8.436;2022-08-19T10:09:13;16.95;;;15.40;;
32108;SDS011;18624;50.042;8.436;2022-08-19T10:11:51;18.92;;;17.08;;
32108;SDS011;18624;50.042;8.436;2022-08-19T10:14:20;16.50;;;15.07;;
32108;SDS011;18624;50.042;8.436;2022-08-19T10:16:49;14.43;;;13.23;;
32108;SDS011;18624;50.042;8.436;2022-08-19T10:19:16;16.30;;;14.90;;
32108;SDS011;18624;50.042;8.436;2022-08-19T10:21:51;15.55;;;14.00;;
32108;SDS011;18624;50.042;8.436;2022-08-19T10:24:18;16.58;;;15.18;;
32108;SDS011;18624;50.042;8.436;2022-08-19T10:26:46;16.67;;;15.23;;
32108;SDS011;18624;50.042;8.436;2022-08-19T10:29:22;15.00;;;13.75;;
32108;SDS011;18624;50.042;8.436;2022-08-19T10:31:59;14.88;;;13.68;;
32108;SDS011;18624;50.042;8.436;2022-08-19T10:34:38;14.18;;;12.98;;
32108;SDS011;18624;50.042;8.436;2022-08-19T10:37:15;14.50;;;13.18;;
32108;SDS011;18624;50.042;8.436;2022-08-19T10:39:57;16.20;;;14.80;;
32108;SDS011;18624;50.042;8.436;2022-08-19T10:42:24;16.25;;;14.77;;
32108;SDS011;18624;50.042;8.436;2022-08-19T10:44:51;14.10;;;13.00;;
32108;SDS011;18624;50.042;8.436;2022-08-19T10:47:17;13.77;;;12.48;;
32108;SDS011;18624;50.042;8.436;2022-08-19T10:49:54;13.25;;;12.23;;
32108;SDS011;18624;50.042;8.436;2022-08-19T10:52:40;14.77;;;13.48;;
32108;SDS011;18624;50.042;8.436;2022-08-19T10:55:16;16.15;;;14.75;;
32108;SDS011;18624;50.042;8.436;2022-08-19T10:58:03;16.33;;;14.88;;
32108;SDS011;18624;50.042;8.436;2022-08-19T11:00:36;14.85;;;13.45;;
32108;SDS011;18624;50.042;8.436;2022-08-19T11:03:03;14.05;;;12.95;;
32108;SDS011;18624;50.042;8.436;2022-08-19T11:05:29;14.80;;;13.48;;
32108;SDS011;18624;50.042;8.436;2022-08-19T11:08:05;15.82;;;14.00;;
32108;SDS011;18624;50.042;8.436;2022-08-19T11:10:50;16.15;;;14.77;;
32108;SDS011;18624;50.042;8.436;2022-08-19T11:13:19;14.63;;;13.38;;
32108;SDS011;18624;50.042;8.436;2022-08-19T11:15:46;14.00;;;12.80;;
32108;SDS011;18624;50.042;8.436;2022-08-19T11:18:13;14.10;;;12.68;;
32108;SDS011;18624;50.042;8.436;2022-08-19T11:20:39;12.70;;;11.63;;
32108;SDS011;18624;50.042;8.436;2022-08-19T11:23:06;12.85;;;11.85;;
32108;SDS011;18624;50.042;8.436;2022-08-19T11:25:33;12.90;;;11.88;;
32108;SDS011;18624;50.042;8.436;2022-08-19T11:28:00;12.23;;;11.20;;
32108;SDS011;18624;50.042;8.436;2022-08-19T11:30:27;10.25;;;9.35;;
32108;SDS011;18624;50.042;8.436;2022-08-19T11:32:53;9.88;;;8.88;;
32108;SDS011;18624;50.042;8.436;2022-08-19T11:35:20;10.43;;;9.25;;
32108;SDS011;18624;50.042;8.436;2022-08-19T11:37:49;10.85;;;9.57;;
32108;SDS011;18624;50.042;8.436;2022-08-19T11:40:15;10.63;;;9.70;;
32108;SDS011;18624;50.042;8.436;2022-08-19T11:42:42;8.82;;;8.13;;
32108;SDS011;18624;50.042;8.436;2022-08-19T11:45:24;9.13;;;7.50;;
32108;SDS011;18624;50.042;8.436;2022-08-19T11:47:54;8.60;;;7.80;;
32108;SDS011;18624;50.042;8.436;2022-08-19T11:50:21;8.15;;;7.55;;
32108;SDS011;18624;50.042;8.436;2022-08-19T11:52:49;8.38;;;7.68;;
32108;SDS011;18624;50.042;8.436;2022-08-19T11:55:17;8.13;;;7.40;;
32108;SDS011;18624;50.042;8.436;2022-08-19T11:57:43;7.60;;;7.10;;
32108;SDS011;18624;50.042;8.436;2022-08-19T12:00:10;7.82;;;7.28;;
32108;SDS011;18624;50.042;8.436;2022-08-19T12:02:39;8.20;;;7.55;;
32108;SDS011;18624;50.042;8.436;2022-08-19T12:05:06;7.15;;;6.55;;
32108;SDS011;18624;50.042;8.436;2022-08-19T12:07:37;7.78;;;7.10;;
32108;SDS011;18624;50.042;8.436;2022-08-19T12:10:04;8.10;;;7.38;;
32108;SDS011;18624;50.042;8.436;2022-08-19T12:12:31;6.93;;;6.32;;
32108;SDS011;18624;50.042;8.436;2022-08-19T12:14:57;6.30;;;5.88;;
32108;SDS011;18624;50.042;8.436;2022-08-19T12:17:25;7.07;;;6.20;;
32108;SDS011;18624;50.042;8.436;2022-08-19T12:19:53;7.63;;;6.82;;
32108;SDS011;18624;50.042;8.436;2022-08-19T12:22:20;8.90;;;7.18;;
32108;SDS011;18624;50.042;8.436;2022-08-19T12:24:48;7.63;;;6.90;;
32108;SDS011;18624;50.042;8.436;2022-08-19T12:27:17;6.88;;;6.38;;
32108;SDS011;18624;50.042;8.436;2022-08-19T12:29:57;7.22;;;6.53;;
32108;SDS011;18624;50.042;8.436;2022-08-19T12:32:26;6.80;;;5.97;;
32108;SDS011;18624;50.042;8.436;2022-08-19T12:34:52;6.32;;;5.93;;
32108;SDS011;18624;50.042;8.436;2022-08-19T12:37:20;5.35;;;4.95;;
32108;SDS011;18624;50.042;8.436;2022-08-19T12:39:46;6.20;;;5.68;;
32108;SDS011;18624;50.042;8.436;2022-08-19T12:42:13;12.10;;;10.95;;
32108;SDS011;18624;50.042;8.436;2022-08-19T12:44:41;6.97;;;6.35;;
32108;SDS011;18624;50.042;8.436;2022-08-19T12:47:10;5.70;;;5.30;;
32108;SDS011;18624;50.042;8.436;2022-08-19T12:49:38;5.85;;;4.78;;
32108;SDS011;18624;50.042;8.436;2022-08-19T12:52:22;6.22;;;5.75;;
32108;SDS011;18624;50.042;8.436;2022-08-19T12:54:50;5.75;;;5.28;;
32108;SDS011;18624;50.042;8.436;2022-08-19T12:57:20;5.50;;;5.00;;
32108;SDS011;18624;50.042;8.436;2022-08-19T12:59:56;6.05;;;4.63;;
32108;SDS011;18624;50.042;8.436;2022-08-19T13:02:23;6.15;;;5.20;;
32108;SDS011;18624;50.042;8.436;2022-08-19T13:04:50;5.35;;;4.85;;
32108;SDS011;18624;50.042;8.436;2022-08-19T13:07:16;5.75;;;5.35;;
32108;SDS011;18624;50.042;8.436;2022-08-19T13:09:43;4.93;;;4.53;;
32108;SDS011;18624;50.042;8.436;2022-08-19T13:12:09;5.53;;;4.72;;
32108;SDS011;18624;50.042;8.436;2022-08-19T13:14:39;4.57;;;4.18;;
32108;SDS011;18624;50.042;8.436;2022-08-19T13:17:07;4.30;;;3.92;;
32108;SDS011;18624;50.042;8.436;2022-08-19T13:19:35;4.10;;;3.80;;
32108;SDS011;18624;50.042;8.436;2022-08-19T13:22:03;5.00;;;4.60;;
32108;SDS011;18624;50.042;8.436;2022-08-19T13:24:38;5.65;;;5.13;;
32108;SDS011;18624;50.042;8.436;2022-08-19T13:27:10;6.20;;;4.10;;
32108;SDS011;18624;50.042;8.436;2022-08-19T13:29:36;6.07;;;4.20;;
32108;SDS011;18624;50.042;8.436;2022-08-19T13:32:24;4.95;;;4.47;;
32108;SDS011;18624;50.042;8.436;2022-08-19T13:35:10;4.63;;;4.22;;
32108;SDS011;18624;50.042;8.436;2022-08-19T13:37:42;4.50;;;4.10;;
32108;SDS011;18624;50.042;8.436;2022-08-19T13:40:10;5.75;;;4.22;;
32108;SDS011;18624;50.042;8.436;2022-08-19T13:42:50;5.45;;;4.97;;
32108;SDS011;18624;50.042;8.436;2022-08-19T13:45:21;3.53;;;3.22;;
32108;SDS011;18624;50.042;8.436;2022-08-19T13:47:50;4.57;;;4.03;;
32108;SDS011;18624;50.042;8.436;2022-08-19T13:50:26;4.80;;;4.40;;
32108;SDS011;18624;50.042;8.436;2022-08-19T13:52:55;5.45;;;4.22;;
32108;SDS011;18624;50.042;8.436;2022-08-19T13:55:22;4.50;;;4.10;;
32108;SDS011;18624;50.042;8.436;2022-08-19T13:57:51;4.95;;;4.47;;
32108;SDS011;18624;50.042;8.436;2022-08-19T14:00:19;4.60;;;4.30;;
32108;SDS011;18624;50.042;8.436;2022-08-19T14:02:49;4.07;;;3.78;;
32108;SDS011;18624;50.042;8.436;2022-08-19T14:05:18;4.40;;;4.10;;
32108;SDS011;18624;50.042;8.436;2022-08-19T14:07:46;5.10;;;4.70;;
32108;SDS011;18624;50.042;8.436;2022-08-19T14:10:15;5.00;;;4.60;;
32108;SDS011;18624;50.042;8.436;2022-08-19T14:12:43;4.95;;;4.53;;
32108;SDS011;18624;50.042;8.436;2022-08-19T14:15:10;5.70;;;5.20;;
32108;SDS011;18624;50.042;8.436;2022-08-19T14:17:40;5.30;;;4.90;;
32108;SDS011;18624;50.042;8.436;2022-08-19T14:20:42;5.95;;;5.55;;
32108;SDS011;18624;50.042;8.436;2022-08-19T14:23:09;6.70;;;6.10;;
32108;SDS011;18624;50.042;8.436;2022-08-19T14:25:38;6.07;;;5.53;;
32108;SDS011;18624;50.042;8.436;2022-08-19T14:28:10;6.80;;;6.30;;
32108;SDS011;18624;50.042;8.436;2022-08-19T14:31:14;8.95;;;6.85;;
32108;SDS011;18624;50.042;8.436;2022-08-19T14:33:45;6.78;;;6.28;;
32108;SDS011;18624;50.042;8.436;2022-08-19T14:36:13;7.53;;;6.93;;
32108;SDS011;18624;50.042;8.436;2022-08-19T14:38:40;7.55;;;6.53;;
32108;SDS011;18624;50.042;8.436;2022-08-19T14:43:34;6.85;;;6.35;;
32108;SDS011;18624;50.042;8.436;2022-08-19T14:46:00;6.97;;;6.38;;
32108;SDS011;18624;50.042;8.436;2022-08-19T14:48:27;7.75;;;7.03;;
32108;SDS011;18624;50.042;8.436;2022-08-19T14:50:54;7.25;;;5.53;;
32108;SDS011;18624;50.042;8.436;2022-08-19T14:53:21;5.57;;;5.07;;
32108;SDS011;18624;50.042;8.436;2022-08-19T14:55:47;5.07;;;4.68;;
32108;SDS011;18624;50.042;8.436;2022-08-19T14:58:15;5.45;;;4.85;;
32108;SDS011;18624;50.042;8.436;2022-08-19T15:00:56;5.75;;;5.25;;
32108;SDS011;18624;50.042;8.436;2022-08-19T15:03:26;6.30;;;5.80;;